sensor_id;sensor_type;location;lat;lon;timestamp;P1;durP1;ratioP1;P2;durP2;ratioP2
17372;SDS011;8803;48.116;11.590;2023-04-03T00:01:58;6.33;;;5.73;;
17372;SDS011;8803;48.116;11.590;2023-04-03T00:04:02;6.17;;;5.20;;
17372;SDS011;8803;48.116;11.590;2023-04-03T00:06:15;5.83;;;4.77;;
17372;SDS011;8803;48.116;11.590;2023-04-03T00:08:19;6.23;;;5.57;;
17372;SDS011;8803;48.116;11.590;2023-04-03T00:10:23;6.17;;;5.57;;
17372;SDS011;8803;48.116;11.590;2023-04-03T00:12:36;6.70;;;5.23;;
17372;SDS011;8803;48.116;11.590;2023-04-03T00:14:40;4.93;;;4.50;;
17372;SDS011;8803;48.116;11.590;2023-04-03T00:16:43;6.13;;;4.67;;
17372;SDS011;8803;48.116;11.590;2023-04-03T00:18:47;6.17;;;5.27;;
17372;SDS011;8803;48.116;11.590;2023-04-03T00:20:51;5.77;;;5.17;;
17372;SDS011;8803;48.116;11.590;2023-04-03T00:23:03;5.37;;;4.63;;
17372;SDS011;8803;48.116;11.590;2023-04-03T00:25:08;6.40;;;5.43;;
17372;SDS011;8803;48.116;11.590;2023-04-03T00:27:12;5.47;;;4.97;;
17372;SDS011;8803;48.116;11.590;2023-04-03T00:29:16;5.30;;;4.50;;
17372;SDS011;8803;48.116;11.590;2023-04-03T00:31:20;6.23;;;5.60;;
17372;SDS011;8803;48.116;11.590;2023-04-03T00:33:33;6.20;;;5.60;;
17372;SDS011;8803;48.116;11.590;2023-04-03T00:35:37;5.50;;;5.00;;
17372;SDS011;8803;48.116;11.590;2023-04-03T00:37:40;5.83;;;5.30;;
17372;SDS011;8803;48.116;11.590;2023-04-03T00:39:44;5.47;;;4.73;;
17372;SDS011;8803;48.116;11.590;2023-04-03T00:41:57;8.20;;;5.27;;
17372;SDS011;8803;48.116;11.590;2023-04-03T00:44:16;6.57;;;5.20;;
17372;SDS011;8803;48.116;11.590;2023-04-03T00:46:25;6.47;;;5.43;;
17372;SDS011;8803;48.116;11.590;2023-04-03T00:48:30;6.17;;;4.93;;
17372;SDS011;8803;48.116;11.590;2023-04-03T00:50:43;7.63;;;5.60;;
17372;SDS011;8803;48.116;11.590;2023-04-03T00:52:48;6.13;;;4.70;;
17372;SDS011;8803;48.116;11.590;2023-04-03T00:55:02;4.93;;;4.50;;
17372;SDS011;8803;48.116;11.590;2023-04-03T00:57:08;6.20;;;5.60;;
17372;SDS011;8803;48.116;11.590;2023-04-03T00:59:13;5.70;;;5.20;;
17372;SDS011;8803;48.116;11.590;2023-04-03T01:01:22;5.37;;;4.80;;
17372;SDS011;8803;48.116;11.590;2023-04-03T01:03:36;6.00;;;4.93;;
17372;SDS011;8803;48.116;11.590;2023-04-03T01:05:40;5.23;;;4.73;;
17372;SDS011;8803;48.116;11.590;2023-04-03T01:07:44;6.30;;;5.07;;
17372;SDS011;8803;48.116;11.590;2023-04-03T01:09:49;5.53;;;5.00;;
17372;SDS011;8803;48.116;11.590;2023-04-03T01:11:57;6.00;;;4.57;;
17372;SDS011;8803;48.116;11.590;2023-04-03T01:14:24;6.00;;;4.53;;
17372;SDS011;8803;48.116;11.590;2023-04-03T01:16:28;5.73;;;5.10;;
17372;SDS011;8803;48.116;11.590;2023-04-03T01:18:33;7.07;;;5.00;;
17372;SDS011;8803;48.116;11.590;2023-04-03T01:20:55;6.73;;;4.80;;
17372;SDS011;8803;48.116;11.590;2023-04-03T01:23:20;5.43;;;4.47;;
17372;SDS011;8803;48.116;11.590;2023-04-03T01:25:27;5.17;;;4.67;;
17372;SDS011;8803;48.116;11.590;2023-04-03T01:27:40;5.10;;;4.60;;
17372;SDS011;8803;48.116;11.590;2023-04-03T01:29:44;4.60;;;4.20;;
17372;SDS011;8803;48.116;11.590;2023-04-03T01:31:57;5.20;;;4.67;;
17372;SDS011;8803;48.116;11.590;2023-04-03T01:34:02;7.33;;;5.30;;
17372;SDS011;8803;48.116;11.590;2023-04-03T01:36:06;5.03;;;4.63;;
17372;SDS011;8803;48.116;11.590;2023-04-03T01:38:11;5.73;;;5.13;;
17372;SDS011;8803;48.116;11.590;2023-04-03T01:40:14;5.53;;;4.93;;
17372;SDS011;8803;48.116;11.590;2023-04-03T01:42:18;6.97;;;5.27;;
17372;SDS011;8803;48.116;11.590;2023-04-03T01:44:31;5.37;;;4.87;;
17372;SDS011;8803;48.116;11.590;2023-04-03T01:46:35;5.40;;;4.40;;
17372;SDS011;8803;48.116;11.590;2023-04-03T01:48:39;5.13;;;4.70;;
17372;SDS011;8803;48.116;11.590;2023-04-03T01:50:43;5.73;;;4.70;;
17372;SDS011;8803;48.116;11.590;2023-04-03T01:52:56;5.77;;;4.70;;
17372;SDS011;8803;48.116;11.590;2023-04-03T01:55:00;5.83;;;5.23;;
17372;SDS011;8803;48.116;11.590;2023-04-03T01:57:04;6.47;;;5.43;;
17372;SDS011;8803;48.116;11.590;2023-04-03T01:59:08;5.07;;;4.67;;
17372;SDS011;8803;48.116;11.590;2023-04-03T02:01:11;6.03;;;5.20;;
17372;SDS011;8803;48.116;11.590;2023-04-03T02:03:27;6.10;;;5.00;;
17372;SDS011;8803;48.116;11.590;2023-04-03T02:05:33;5.17;;;4.67;;
17372;SDS011;8803;48.116;11.590;2023-04-03T02:07:37;5.47;;;4.97;;
17372;SDS011;8803;48.116;11.590;2023-04-03T02:09:49;5.07;;;4.57;;
17372;SDS011;8803;48.116;11.590;2023-04-03T02:11:53;7.53;;;4.80;;
17372;SDS011;8803;48.116;11.590;2023-04-03T02:14:07;7.23;;;4.73;;
17372;SDS011;8803;48.116;11.590;2023-04-03T02:16:11;6.60;;;5.17;;
17372;SDS011;8803;48.116;11.590;2023-04-03T02:18:27;5.10;;;4.57;;
17372;SDS011;8803;48.116;11.590;2023-04-03T02:20:31;6.03;;;5.27;;
17372;SDS011;8803;48.116;11.590;2023-04-03T02:22:34;4.37;;;3.93;;
17372;SDS011;8803;48.116;11.590;2023-04-03T02:24:38;5.20;;;4.70;;
17372;SDS011;8803;48.116;11.590;2023-04-03T02:26:51;5.30;;;4.10;;
17372;SDS011;8803;48.116;11.590;2023-04-03T02:28:55;5.50;;;4.90;;
17372;SDS011;8803;48.116;11.590;2023-04-03T02:30:59;4.90;;;4.13;;
17372;SDS011;8803;48.116;11.590;2023-04-03T02:33:13;4.80;;;4.27;;
17372;SDS011;8803;48.116;11.590;2023-04-03T02:35:17;5.17;;;4.63;;
17372;SDS011;8803;48.116;11.590;2023-04-03T02:37:21;4.93;;;4.43;;
17372;SDS011;8803;48.116;11.590;2023-04-03T02:39:24;4.80;;;4.03;;
17372;SDS011;8803;48.116;11.590;2023-04-03T02:43:40;4.73;;;4.03;;
17372;SDS011;8803;48.116;11.590;2023-04-03T02:45:44;4.73;;;4.23;;
17372;SDS011;8803;48.116;11.590;2023-04-03T02:47:47;5.07;;;4.17;;
17372;SDS011;8803;48.116;11.590;2023-04-03T02:49:51;4.53;;;4.00;;
17372;SDS011;8803;48.116;11.590;2023-04-03T02:52:04;5.00;;;4.00;;
17372;SDS011;8803;48.116;11.590;2023-04-03T02:54:08;5.63;;;3.93;;
17372;SDS011;8803;48.116;11.590;2023-04-03T02:56:12;4.40;;;4.00;;
17372;SDS011;8803;48.116;11.590;2023-04-03T02:58:16;4.23;;;3.73;;
17372;SDS011;8803;48.116;11.590;2023-04-03T03:00:20;4.50;;;3.90;;
17372;SDS011;8803;48.116;11.590;2023-04-03T03:02:24;5.20;;;3.60;;
17372;SDS011;8803;48.116;11.590;2023-04-03T03:04:36;4.77;;;3.77;;
17372;SDS011;8803;48.116;11.590;2023-04-03T03:06:40;3.73;;;3.30;;
17372;SDS011;8803;48.116;11.590;2023-04-03T03:08:44;3.77;;;3.30;;
17372;SDS011;8803;48.116;11.590;2023-04-03T03:10:48;4.40;;;3.50;;
17372;SDS011;8803;48.116;11.590;2023-04-03T03:13:00;3.83;;;3.50;;
17372;SDS011;8803;48.116;11.590;2023-04-03T03:15:05;4.57;;;3.43;;
17372;SDS011;8803;48.116;11.590;2023-04-03T03:17:10;5.10;;;3.70;;
17372;SDS011;8803;48.116;11.590;2023-04-03T03:19:14;3.27;;;2.97;;
17372;SDS011;8803;48.116;11.590;2023-04-03T03:21:17;3.70;;;3.40;;
17372;SDS011;8803;48.116;11.590;2023-04-03T03:23:22;3.27;;;3.00;;
17372;SDS011;8803;48.116;11.590;2023-04-03T03:25:37;3.43;;;3.10;;
17372;SDS011;8803;48.116;11.590;2023-04-03T03:27:42;4.97;;;2.90;;
17372;SDS011;8803;48.116;11.590;2023-04-03T03:29:46;4.33;;;3.07;;
17372;SDS011;8803;48.116;11.590;2023-04-03T03:32:00;3.27;;;2.97;;
17372;SDS011;8803;48.116;11.590;2023-04-03T03:34:03;3.97;;;3.20;;
17372;SDS011;8803;48.116;11.590;2023-04-03T03:36:07;3.30;;;3.00;;
17372;SDS011;8803;48.116;11.590;2023-04-03T03:38:12;3.97;;;3.57;;
17372;SDS011;8803;48.116;11.590;2023-04-03T03:40:16;3.50;;;3.20;;
17372;SDS011;8803;48.116;11.590;2023-04-03T03:42:29;3.10;;;2.80;;
17372;SDS011;8803;48.116;11.590;2023-04-03T03:44:32;3.27;;;2.97;;
17372;SDS011;8803;48.116;11.590;2023-04-03T03:46:36;4.63;;;3.10;;
17372;SDS011;8803;48.116;11.590;2023-04-03T03:48:40;3.10;;;2.80;;
17372;SDS011;8803;48.116;11.590;2023-04-03T03:50:44;3.37;;;2.93;;
17372;SDS011;8803;48.116;11.590;2023-04-03T03:52:57;3.50;;;2.60;;
17372;SDS011;8803;48.116;11.590;2023-04-03T03:55:01;3.37;;;3.00;;
17372;SDS011;8803;48.116;11.590;2023-04-03T03:57:05;3.33;;;2.70;;
17372;SDS011;8803;48.116;11.590;2023-04-03T03:59:10;3.60;;;2.60;;
17372;SDS011;8803;48.116;11.590;2023-04-03T04:03:26;3.80;;;3.30;;
17372;SDS011;8803;48.116;11.590;2023-04-03T04:05:29;3.20;;;2.90;;
17372;SDS011;8803;48.116;11.590;2023-04-03T04:07:33;2.97;;;2.67;;
17372;SDS011;8803;48.116;11.590;2023-04-03T04:09:37;4.07;;;3.00;;
17372;SDS011;8803;48.116;11.590;2023-04-03T04:11:41;3.77;;;3.33;;
17372;SDS011;8803;48.116;11.590;2023-04-03T04:13:45;2.80;;;2.60;;
17372;SDS011;8803;48.116;11.590;2023-04-03T04:15:57;2.97;;;2.50;;
17372;SDS011;8803;48.116;11.590;2023-04-03T04:18:01;3.40;;;2.80;;
17372;SDS011;8803;48.116;11.590;2023-04-03T04:20:06;3.03;;;2.73;;
17372;SDS011;8803;48.116;11.590;2023-04-03T04:22:19;3.07;;;2.83;;
17372;SDS011;8803;48.116;11.590;2023-04-03T04:24:23;3.90;;;2.87;;
17372;SDS011;8803;48.116;11.590;2023-04-03T04:26:26;6.10;;;3.17;;
17372;SDS011;8803;48.116;11.590;2023-04-03T04:28:30;3.60;;;2.90;;
17372;SDS011;8803;48.116;11.590;2023-04-03T04:30:34;3.50;;;3.20;;
17372;SDS011;8803;48.116;11.590;2023-04-03T04:32:50;3.90;;;3.03;;
17372;SDS011;8803;48.116;11.590;2023-04-03T04:34:53;3.30;;;3.00;;
17372;SDS011;8803;48.116;11.590;2023-04-03T04:36:57;3.43;;;3.03;;
17372;SDS011;8803;48.116;11.590;2023-04-03T04:39:01;4.90;;;2.80;;
17372;SDS011;8803;48.116;11.590;2023-04-03T04:41:05;3.87;;;3.33;;
17372;SDS011;8803;48.116;11.590;2023-04-03T04:43:08;2.90;;;2.60;;
17372;SDS011;8803;48.116;11.590;2023-04-03T04:45:21;3.53;;;2.87;;
17372;SDS011;8803;48.116;11.590;2023-04-03T04:47:25;2.97;;;2.67;;
17372;SDS011;8803;48.116;11.590;2023-04-03T04:49:30;3.87;;;3.07;;
17372;SDS011;8803;48.116;11.590;2023-04-03T04:51:44;3.43;;;3.00;;
17372;SDS011;8803;48.116;11.590;2023-04-03T04:53:48;3.83;;;2.97;;
17372;SDS011;8803;48.116;11.590;2023-04-03T04:55:52;2.87;;;2.67;;
17372;SDS011;8803;48.116;11.590;2023-04-03T04:57:56;3.57;;;3.10;;
17372;SDS011;8803;48.116;11.590;2023-04-03T04:59:59;3.17;;;2.87;;
17372;SDS011;8803;48.116;11.590;2023-04-03T05:02:15;3.43;;;3.00;;
17372;SDS011;8803;48.116;11.590;2023-04-03T05:04:19;2.97;;;2.50;;
17372;SDS011;8803;48.116;11.590;2023-04-03T05:06:23;3.20;;;2.90;;
17372;SDS011;8803;48.116;11.590;2023-04-03T05:08:27;3.30;;;2.93;;
17372;SDS011;8803;48.116;11.590;2023-04-03T05:10:30;3.20;;;2.90;;
17372;SDS011;8803;48.116;11.590;2023-04-03T05:12:44;3.37;;;3.07;;
17372;SDS011;8803;48.116;11.590;2023-04-03T05:14:47;4.50;;;2.63;;
17372;SDS011;8803;48.116;11.590;2023-04-03T05:16:51;3.63;;;2.87;;
17372;SDS011;8803;48.116;11.590;2023-04-03T05:18:55;3.77;;;3.00;;
17372;SDS011;8803;48.116;11.590;2023-04-03T05:20:59;3.83;;;2.80;;
17372;SDS011;8803;48.116;11.590;2023-04-03T05:23:11;3.33;;;2.50;;
17372;SDS011;8803;48.116;11.590;2023-04-03T05:25:15;3.30;;;2.90;;
17372;SDS011;8803;48.116;11.590;2023-04-03T05:27:19;3.93;;;3.07;;
17372;SDS011;8803;48.116;11.590;2023-04-03T05:29:24;3.00;;;2.40;;
17372;SDS011;8803;48.116;11.590;2023-04-03T05:31:28;3.10;;;2.90;;
17372;SDS011;8803;48.116;11.590;2023-04-03T05:33:41;3.20;;;2.90;;
17372;SDS011;8803;48.116;11.590;2023-04-03T05:35:47;4.23;;;2.77;;
17372;SDS011;8803;48.116;11.590;2023-04-03T05:37:50;6.27;;;3.63;;
17372;SDS011;8803;48.116;11.590;2023-04-03T05:39:54;5.33;;;3.43;;
17372;SDS011;8803;48.116;11.590;2023-04-03T05:42:07;3.50;;;3.20;;
17372;SDS011;8803;48.116;11.590;2023-04-03T05:44:12;3.97;;;3.00;;
17372;SDS011;8803;48.116;11.590;2023-04-03T05:46:18;3.93;;;3.10;;
17372;SDS011;8803;48.116;11.590;2023-04-03T05:48:22;3.17;;;2.73;;
17372;SDS011;8803;48.116;11.590;2023-04-03T05:50:27;3.27;;;2.87;;
17372;SDS011;8803;48.116;11.590;2023-04-03T05:52:42;2.97;;;2.63;;
17372;SDS011;8803;48.116;11.590;2023-04-03T05:54:48;3.73;;;3.10;;
17372;SDS011;8803;48.116;11.590;2023-04-03T05:57:02;3.10;;;2.80;;
17372;SDS011;8803;48.116;11.590;2023-04-03T05:59:06;3.40;;;3.10;;
17372;SDS011;8803;48.116;11.590;2023-04-03T06:03:21;3.70;;;2.90;;
17372;SDS011;8803;48.116;11.590;2023-04-03T06:05:26;4.47;;;2.90;;
17372;SDS011;8803;48.116;11.590;2023-04-03T06:09:41;3.00;;;2.70;;
17372;SDS011;8803;48.116;11.590;2023-04-03T06:11:46;3.13;;;2.67;;
17372;SDS011;8803;48.116;11.590;2023-04-03T06:13:50;3.30;;;2.77;;
17372;SDS011;8803;48.116;11.590;2023-04-03T06:16:02;4.00;;;2.83;;
17372;SDS011;8803;48.116;11.590;2023-04-03T06:18:07;4.60;;;2.80;;
17372;SDS011;8803;48.116;11.590;2023-04-03T06:20:12;3.37;;;2.90;;
17372;SDS011;8803;48.116;11.590;2023-04-03T06:22:24;3.23;;;2.90;;
17372;SDS011;8803;48.116;11.590;2023-04-03T06:24:30;5.37;;;3.13;;
17372;SDS011;8803;48.116;11.590;2023-04-03T06:26:34;3.23;;;2.93;;
17372;SDS011;8803;48.116;11.590;2023-04-03T06:28:47;2.90;;;2.70;;
17372;SDS011;8803;48.116;11.590;2023-04-03T06:30:50;3.40;;;2.90;;
17372;SDS011;8803;48.116;11.590;2023-04-03T06:33:03;3.80;;;3.40;;
17372;SDS011;8803;48.116;11.590;2023-04-03T06:35:08;3.67;;;3.27;;
17372;SDS011;8803;48.116;11.590;2023-04-03T06:37:13;10.07;;;7.27;;
17372;SDS011;8803;48.116;11.590;2023-04-03T06:39:20;9.77;;;8.40;;
17372;SDS011;8803;48.116;11.590;2023-04-03T06:41:33;4.07;;;3.67;;
17372;SDS011;8803;48.116;11.590;2023-04-03T06:43:37;4.10;;;3.43;;
17372;SDS011;8803;48.116;11.590;2023-04-03T06:45:49;4.00;;;3.60;;
17372;SDS011;8803;48.116;11.590;2023-04-03T06:47:53;9.13;;;3.80;;
17372;SDS011;8803;48.116;11.590;2023-04-03T06:49:57;3.67;;;3.20;;
17372;SDS011;8803;48.116;11.590;2023-04-03T06:52:10;3.53;;;3.23;;
17372;SDS011;8803;48.116;11.590;2023-04-03T06:54:14;4.50;;;3.40;;
17372;SDS011;8803;48.116;11.590;2023-04-03T06:56:18;5.07;;;3.50;;
17372;SDS011;8803;48.116;11.590;2023-04-03T06:58:23;4.93;;;3.57;;
17372;SDS011;8803;48.116;11.590;2023-04-03T07:00:35;4.80;;;3.97;;
17372;SDS011;8803;48.116;11.590;2023-04-03T07:02:39;4.83;;;3.20;;
17372;SDS011;8803;48.116;11.590;2023-04-03T07:04:43;4.90;;;3.80;;
17372;SDS011;8803;48.116;11.590;2023-04-03T07:06:47;5.10;;;3.57;;
17372;SDS011;8803;48.116;11.590;2023-04-03T07:08:59;20.30;;;14.23;;
17372;SDS011;8803;48.116;11.590;2023-04-03T07:11:04;5.77;;;4.93;;
17372;SDS011;8803;48.116;11.590;2023-04-03T07:13:16;5.10;;;3.90;;
17372;SDS011;8803;48.116;11.590;2023-04-03T07:15:20;4.00;;;3.33;;
17372;SDS011;8803;48.116;11.590;2023-04-03T07:17:24;4.67;;;3.43;;
17372;SDS011;8803;48.116;11.590;2023-04-03T07:19:28;4.17;;;3.40;;
17372;SDS011;8803;48.116;11.590;2023-04-03T07:21:32;4.07;;;3.40;;
17372;SDS011;8803;48.116;11.590;2023-04-03T07:23:36;3.87;;;3.47;;
17372;SDS011;8803;48.116;11.590;2023-04-03T07:25:49;5.67;;;3.60;;
17372;SDS011;8803;48.116;11.590;2023-04-03T07:27:54;4.03;;;3.30;;
17372;SDS011;8803;48.116;11.590;2023-04-03T07:29:58;4.27;;;3.53;;
17372;SDS011;8803;48.116;11.590;2023-04-03T07:32:11;3.97;;;3.60;;
17372;SDS011;8803;48.116;11.590;2023-04-03T07:34:15;3.87;;;3.30;;
17372;SDS011;8803;48.116;11.590;2023-04-03T07:36:20;5.47;;;3.70;;
17372;SDS011;8803;48.116;11.590;2023-04-03T07:38:24;4.53;;;3.60;;
17372;SDS011;8803;48.116;11.590;2023-04-03T07:40:28;4.50;;;3.50;;
17372;SDS011;8803;48.116;11.590;2023-04-03T07:42:40;4.00;;;3.60;;
17372;SDS011;8803;48.116;11.590;2023-04-03T07:44:44;4.97;;;4.20;;
17372;SDS011;8803;48.116;11.590;2023-04-03T07:46:48;4.77;;;4.03;;
17372;SDS011;8803;48.116;11.590;2023-04-03T07:49:01;5.00;;;3.90;;
17372;SDS011;8803;48.116;11.590;2023-04-03T07:51:04;4.17;;;3.67;;
17372;SDS011;8803;48.116;11.590;2023-04-03T07:53:17;6.43;;;4.83;;
17372;SDS011;8803;48.116;11.590;2023-04-03T07:55:21;4.93;;;4.20;;
17372;SDS011;8803;48.116;11.590;2023-04-03T07:57:25;4.37;;;3.97;;
17372;SDS011;8803;48.116;11.590;2023-04-03T07:59:29;5.10;;;4.43;;
17372;SDS011;8803;48.116;11.590;2023-04-03T08:01:33;6.03;;;5.43;;
17372;SDS011;8803;48.116;11.590;2023-04-03T08:03:45;5.93;;;4.90;;
17372;SDS011;8803;48.116;11.590;2023-04-03T08:05:49;5.67;;;4.20;;
17372;SDS011;8803;48.116;11.590;2023-04-03T08:07:54;5.70;;;4.60;;
17372;SDS011;8803;48.116;11.590;2023-04-03T08:09:58;6.03;;;5.07;;
17372;SDS011;8803;48.116;11.590;2023-04-03T08:12:10;5.70;;;4.47;;
17372;SDS011;8803;48.116;11.590;2023-04-03T08:14:15;4.80;;;4.30;;
17372;SDS011;8803;48.116;11.590;2023-04-03T08:16:20;6.27;;;4.53;;
17372;SDS011;8803;48.116;11.590;2023-04-03T08:18:27;4.83;;;4.20;;
17372;SDS011;8803;48.116;11.590;2023-04-03T08:20:32;7.57;;;5.07;;
17372;SDS011;8803;48.116;11.590;2023-04-03T08:22:48;5.47;;;4.53;;
17372;SDS011;8803;48.116;11.590;2023-04-03T08:24:52;5.50;;;4.97;;
17372;SDS011;8803;48.116;11.590;2023-04-03T08:26:56;4.77;;;4.27;;
17372;SDS011;8803;48.116;11.590;2023-04-03T08:29:00;4.90;;;4.37;;
17372;SDS011;8803;48.116;11.590;2023-04-03T08:31:14;8.10;;;4.23;;
17372;SDS011;8803;48.116;11.590;2023-04-03T08:35:38;5.20;;;4.57;;
17372;SDS011;8803;48.116;11.590;2023-04-03T08:37:42;6.33;;;4.80;;
17372;SDS011;8803;48.116;11.590;2023-04-03T08:39:46;4.57;;;3.97;;
17372;SDS011;8803;48.116;11.590;2023-04-03T08:41:59;7.93;;;4.93;;
17372;SDS011;8803;48.116;11.590;2023-04-03T08:44:13;4.90;;;4.40;;
17372;SDS011;8803;48.116;11.590;2023-04-03T08:46:20;4.63;;;4.13;;
17372;SDS011;8803;48.116;11.590;2023-04-03T08:48:35;5.13;;;4.13;;
17372;SDS011;8803;48.116;11.590;2023-04-03T08:50:43;4.70;;;4.07;;
17372;SDS011;8803;48.116;11.590;2023-04-03T08:52:57;5.97;;;4.23;;
17372;SDS011;8803;48.116;11.590;2023-04-03T08:55:06;6.97;;;4.23;;
17372;SDS011;8803;48.116;11.590;2023-04-03T08:57:13;6.60;;;4.37;;
17372;SDS011;8803;48.116;11.590;2023-04-03T08:59:19;4.83;;;4.33;;
17372;SDS011;8803;48.116;11.590;2023-04-03T09:01:33;5.00;;;4.40;;
17372;SDS011;8803;48.116;11.590;2023-04-03T09:03:39;7.63;;;4.90;;
17372;SDS011;8803;48.116;11.590;2023-04-03T09:05:55;4.20;;;3.80;;
17372;SDS011;8803;48.116;11.590;2023-04-03T09:08:03;7.87;;;4.57;;
17372;SDS011;8803;48.116;11.590;2023-04-03T09:10:07;6.10;;;4.63;;
17372;SDS011;8803;48.116;11.590;2023-04-03T09:12:16;5.57;;;4.70;;
17372;SDS011;8803;48.116;11.590;2023-04-03T09:14:35;6.33;;;4.27;;
17372;SDS011;8803;48.116;11.590;2023-04-03T09:16:49;5.93;;;4.60;;
17372;SDS011;8803;48.116;11.590;2023-04-03T09:18:57;6.33;;;5.10;;
17372;SDS011;8803;48.116;11.590;2023-04-03T09:21:17;5.13;;;4.40;;
17372;SDS011;8803;48.116;11.590;2023-04-03T09:23:24;6.10;;;4.40;;
17372;SDS011;8803;48.116;11.590;2023-04-03T09:25:31;5.83;;;4.30;;
17372;SDS011;8803;48.116;11.590;2023-04-03T09:27:47;5.97;;;4.33;;
17372;SDS011;8803;48.116;11.590;2023-04-03T09:29:52;4.23;;;3.83;;
17372;SDS011;8803;48.116;11.590;2023-04-03T09:32:00;4.50;;;4.10;;
17372;SDS011;8803;48.116;11.590;2023-04-03T09:34:17;5.13;;;4.00;;
17372;SDS011;8803;48.116;11.590;2023-04-03T09:36:39;5.87;;;4.30;;
17372;SDS011;8803;48.116;11.590;2023-04-03T09:38:44;5.20;;;4.07;;
17372;SDS011;8803;48.116;11.590;2023-04-03T09:40:48;5.57;;;4.73;;
17372;SDS011;8803;48.116;11.590;2023-04-03T09:42:55;7.07;;;4.60;;
17372;SDS011;8803;48.116;11.590;2023-04-03T09:45:18;5.23;;;4.40;;
17372;SDS011;8803;48.116;11.590;2023-04-03T09:47:24;4.63;;;4.00;;
17372;SDS011;8803;48.116;11.590;2023-04-03T09:49:30;4.80;;;4.20;;
17372;SDS011;8803;48.116;11.590;2023-04-03T09:51:34;5.07;;;3.73;;
17372;SDS011;8803;48.116;11.590;2023-04-03T09:53:46;4.40;;;3.97;;
17372;SDS011;8803;48.116;11.590;2023-04-03T09:55:50;5.03;;;3.80;;
17372;SDS011;8803;48.116;11.590;2023-04-03T09:58:03;4.73;;;3.37;;
17372;SDS011;8803;48.116;11.590;2023-04-03T10:00:19;3.40;;;3.00;;
17372;SDS011;8803;48.116;11.590;2023-04-03T10:02:34;6.40;;;3.70;;
17372;SDS011;8803;48.116;11.590;2023-04-03T10:04:40;4.23;;;3.67;;
17372;SDS011;8803;48.116;11.590;2023-04-03T10:06:55;4.73;;;3.30;;
17372;SDS011;8803;48.116;11.590;2023-04-03T10:09:00;3.60;;;3.30;;
17372;SDS011;8803;48.116;11.590;2023-04-03T10:11:13;6.00;;;3.70;;
17372;SDS011;8803;48.116;11.590;2023-04-03T10:13:20;4.13;;;3.57;;
17372;SDS011;8803;48.116;11.590;2023-04-03T10:15:34;4.73;;;3.60;;
17372;SDS011;8803;48.116;11.590;2023-04-03T10:17:45;4.60;;;3.70;;
17372;SDS011;8803;48.116;11.590;2023-04-03T10:19:52;5.23;;;3.37;;
17372;SDS011;8803;48.116;11.590;2023-04-03T10:24:11;5.97;;;4.17;;
17372;SDS011;8803;48.116;11.590;2023-04-03T10:26:20;6.67;;;4.30;;
17372;SDS011;8803;48.116;11.590;2023-04-03T10:28:34;4.27;;;3.50;;
17372;SDS011;8803;48.116;11.590;2023-04-03T10:30:44;5.60;;;4.13;;
17372;SDS011;8803;48.116;11.590;2023-04-03T10:33:00;5.50;;;3.90;;
17372;SDS011;8803;48.116;11.590;2023-04-03T10:35:18;6.10;;;4.10;;
17372;SDS011;8803;48.116;11.590;2023-04-03T10:37:24;6.10;;;4.77;;
17372;SDS011;8803;48.116;11.590;2023-04-03T10:39:31;4.60;;;4.03;;
17372;SDS011;8803;48.116;11.590;2023-04-03T10:41:41;4.17;;;3.73;;
17372;SDS011;8803;48.116;11.590;2023-04-03T10:43:59;8.10;;;3.83;;
17372;SDS011;8803;48.116;11.590;2023-04-03T10:46:06;9.03;;;3.70;;
17372;SDS011;8803;48.116;11.590;2023-04-03T10:48:24;5.37;;;3.50;;
17372;SDS011;8803;48.116;11.590;2023-04-03T10:50:39;3.50;;;3.20;;
17372;SDS011;8803;48.116;11.590;2023-04-03T10:52:47;4.17;;;3.23;;
17372;SDS011;8803;48.116;11.590;2023-04-03T10:54:56;5.10;;;3.90;;
17372;SDS011;8803;48.116;11.590;2023-04-03T10:57:12;4.73;;;3.40;;
17372;SDS011;8803;48.116;11.590;2023-04-03T10:59:21;5.17;;;3.57;;
17372;SDS011;8803;48.116;11.590;2023-04-03T11:01:37;3.20;;;2.90;;
17372;SDS011;8803;48.116;11.590;2023-04-03T11:03:51;3.77;;;3.10;;
17372;SDS011;8803;48.116;11.590;2023-04-03T11:05:57;3.53;;;3.23;;
17372;SDS011;8803;48.116;11.590;2023-04-03T11:08:05;3.70;;;3.23;;
17372;SDS011;8803;48.116;11.590;2023-04-03T11:10:14;5.13;;;3.07;;
17372;SDS011;8803;48.116;11.590;2023-04-03T11:12:28;3.43;;;3.03;;
17372;SDS011;8803;48.116;11.590;2023-04-03T11:14:35;8.03;;;3.50;;
17372;SDS011;8803;48.116;11.590;2023-04-03T11:16:41;4.00;;;3.23;;
17372;SDS011;8803;48.116;11.590;2023-04-03T11:18:48;3.87;;;3.47;;
17372;SDS011;8803;48.116;11.590;2023-04-03T11:20:57;3.77;;;3.00;;
17372;SDS011;8803;48.116;11.590;2023-04-03T11:23:13;3.60;;;3.20;;
17372;SDS011;8803;48.116;11.590;2023-04-03T11:25:19;4.10;;;3.47;;
17372;SDS011;8803;48.116;11.590;2023-04-03T11:27:25;3.30;;;2.87;;
17372;SDS011;8803;48.116;11.590;2023-04-03T11:29:34;2.87;;;2.47;;
17372;SDS011;8803;48.116;11.590;2023-04-03T11:32:01;3.60;;;2.80;;
17372;SDS011;8803;48.116;11.590;2023-04-03T11:34:04;3.83;;;2.63;;
17372;SDS011;8803;48.116;11.590;2023-04-03T11:36:21;4.70;;;3.10;;
17372;SDS011;8803;48.116;11.590;2023-04-03T11:38:35;5.50;;;2.90;;
17372;SDS011;8803;48.116;11.590;2023-04-03T11:40:41;4.50;;;2.50;;
17372;SDS011;8803;48.116;11.590;2023-04-03T11:43:02;4.17;;;2.60;;
17372;SDS011;8803;48.116;11.590;2023-04-03T11:45:17;3.57;;;2.20;;
17372;SDS011;8803;48.116;11.590;2023-04-03T11:47:44;4.17;;;2.90;;
17372;SDS011;8803;48.116;11.590;2023-04-03T11:50:07;3.90;;;2.70;;
17372;SDS011;8803;48.116;11.590;2023-04-03T11:52:14;4.40;;;3.43;;
17372;SDS011;8803;48.116;11.590;2023-04-03T11:54:48;3.30;;;2.67;;
17372;SDS011;8803;48.116;11.590;2023-04-03T11:56:52;4.67;;;4.03;;
17372;SDS011;8803;48.116;11.590;2023-04-03T12:04:06;3.80;;;2.50;;
17372;SDS011;8803;48.116;11.590;2023-04-03T12:09:00;4.33;;;2.20;;
17372;SDS011;8803;48.116;11.590;2023-04-03T12:11:15;3.27;;;2.00;;
17372;SDS011;8803;48.116;11.590;2023-04-03T12:13:26;3.00;;;2.27;;
17372;SDS011;8803;48.116;11.590;2023-04-03T12:23:08;3.63;;;2.37;;
17372;SDS011;8803;48.116;11.590;2023-04-03T12:28:10;2.93;;;2.30;;
17372;SDS011;8803;48.116;11.590;2023-04-03T12:30:18;3.40;;;2.57;;
17372;SDS011;8803;48.116;11.590;2023-04-03T12:32:47;5.20;;;2.80;;
17372;SDS011;8803;48.116;11.590;2023-04-03T12:37:19;4.20;;;2.33;;
17372;SDS011;8803;48.116;11.590;2023-04-03T12:39:47;5.03;;;2.10;;
17372;SDS011;8803;48.116;11.590;2023-04-03T12:41:56;3.43;;;2.20;;
17372;SDS011;8803;48.116;11.590;2023-04-03T12:44:19;3.20;;;2.20;;
17372;SDS011;8803;48.116;11.590;2023-04-03T12:46:32;3.23;;;2.23;;
17372;SDS011;8803;48.116;11.590;2023-04-03T12:48:48;1.60;;;1.50;;
17372;SDS011;8803;48.116;11.590;2023-04-03T12:50:54;2.33;;;1.90;;
17372;SDS011;8803;48.116;11.590;2023-04-03T12:53:11;4.07;;;2.27;;
17372;SDS011;8803;48.116;11.590;2023-04-03T12:55:19;2.33;;;1.60;;
17372;SDS011;8803;48.116;11.590;2023-04-03T12:57:31;5.00;;;1.90;;
17372;SDS011;8803;48.116;11.590;2023-04-03T12:59:36;3.47;;;2.10;;
17372;SDS011;8803;48.116;11.590;2023-04-03T13:01:55;2.70;;;1.90;;
17372;SDS011;8803;48.116;11.590;2023-04-03T13:04:00;3.60;;;2.17;;
17372;SDS011;8803;48.116;11.590;2023-04-03T13:06:17;2.93;;;1.93;;
17372;SDS011;8803;48.116;11.590;2023-04-03T13:08:21;3.57;;;1.77;;
17372;SDS011;8803;48.116;11.590;2023-04-03T13:10:35;2.40;;;1.60;;
17372;SDS011;8803;48.116;11.590;2023-04-03T13:15:00;4.97;;;2.10;;
17372;SDS011;8803;48.116;11.590;2023-04-03T13:17:10;3.07;;;2.20;;
17372;SDS011;8803;48.116;11.590;2023-04-03T13:19:16;2.97;;;1.83;;
17372;SDS011;8803;48.116;11.590;2023-04-03T13:21:22;2.67;;;1.90;;
17372;SDS011;8803;48.116;11.590;2023-04-03T13:23:36;2.77;;;2.00;;
17372;SDS011;8803;48.116;11.590;2023-04-03T13:25:42;1.93;;;1.60;;
17372;SDS011;8803;48.116;11.590;2023-04-03T13:27:55;2.17;;;1.60;;
17372;SDS011;8803;48.116;11.590;2023-04-03T13:30:03;2.53;;;1.83;;